Decoded Metar for LYVR (VRSAC in SERBIA) (IATA:N/A) | Meteo·Mobile Aviation Weather
aviador You're here:

LYVR Decoded Metar

VRSAC in SERBIA
Report Time2019-02-17 07:00:00
UTC Time2019-02-17 07:29:09
Flight Rules ifr IFR
WindVRB at 01 kt
Visibility2500 m
Phenomena:Mist
Clouds:N/A
CeilingNone
Temp-2°C (ISA -16)
Dew Point-2°C (100% RH)
AAT-4.6°C
QNH1031 hPa
Density Alt-2,277 ft
Elevation279 ft
Report Wrong Elevation
Raw Report
METAR LYVR 170700Z VRB01KT 2500 BR NSC M02/M02 Q1031 NOSIG=

Extra information for LYVR:More info

Metar Taf Metar & Taf Last 4 Metars F.Rules Stats Wind Profile Meteogram Temp Stats Airport Information Weather charts Add Link Nearby VenuesMetar ALERT Operation Metar Decoded Social comments